Time;durP1;ratioP1;P1;durP2;ratioP2;P2;SDS_P1;SDS_P2;PMS_P1;PMS_P2;Temp;Humidity;BMP_temperature;BMP_pressure;BME280_temperature;BME280_humidity;BME280_pressure;Samples;Min_cycle;Max_cycle;Signal;HPM_P1;HPM_P2
2022/07/19 00:01:38;;;;;;;6.03;2.50;;;;;;;;;;5052540;28;20416;-79
2022/07/19 00:04:04;;;;;;;5.40;2.67;;;;;;;;;;5050756;28;20456;-78
2022/07/19 00:06:30;;;;;;;4.13;3.00;;;;;;;;;;5052369;28;20475;-78
2022/07/19 00:08:56;;;;;;;3.43;2.20;;;;;;;;;;5052176;28;20429;-78
2022/07/19 00:11:22;;;;;;;4.63;2.60;;;;;;;;;;5052352;28;20437;-77
2022/07/19 00:13:48;;;;;;;3.23;2.30;;;;;;;;;;5051976;28;20922;-78
2022/07/19 00:16:14;;;;;;;3.37;2.40;;;;;;;;;;5052417;28;20416;-78
2022/07/19 00:18:40;;;;;;;4.93;3.00;;;;;;;;;;5052490;28;20871;-78
2022/07/19 00:21:06;;;;;;;4.10;2.40;;;;;;;;;;5052349;28;20401;-78
2022/07/19 00:23:32;;;;;;;4.67;2.40;;;;;;;;;;5051881;28;20791;-77
2022/07/19 00:25:58;;;;;;;3.63;2.37;;;;;;;;;;5052099;28;20459;-77
2022/07/19 00:28:25;;;;;;;2.57;2.37;;;;;;;;;;5054377;28;20950;-78
2022/07/19 00:30:51;;;;;;;6.47;2.83;;;;;;;;;;5056057;28;20415;-78
2022/07/19 00:33:18;;;;;;;8.40;3.07;;;;;;;;;;5055532;28;20481;-78
2022/07/19 00:35:44;;;;;;;4.10;2.50;;;;;;;;;;5056066;28;20434;-77
2022/07/19 00:38:11;;;;;;;3.37;2.40;;;;;;;;;;5055735;28;20413;-77
2022/07/19 00:40:37;;;;;;;3.00;2.53;;;;;;;;;;5055932;28;20528;-77
2022/07/19 00:43:04;;;;;;;7.83;3.00;;;;;;;;;;5056454;28;20519;-78
2022/07/19 00:45:30;;;;;;;7.10;2.80;;;;;;;;;;5056262;28;20499;-78
2022/07/19 00:47:56;;;;;;;5.57;2.93;;;;;;;;;;5055593;28;20419;-77
2022/07/19 00:50:22;;;;;;;4.40;2.77;;;;;;;;;;5055433;28;20541;-78
2022/07/19 00:52:50;;;;;;;5.63;2.50;;;;;;;;;;5055326;28;20948;-78
2022/07/19 00:55:18;;;;;;;6.93;3.20;;;;;;;;;;5055201;28;20416;-77
2022/07/19 00:57:45;;;;;;;4.13;2.80;;;;;;;;;;5055351;28;20410;-78
2022/07/19 01:00:11;;;;;;;5.20;3.37;;;;;;;;;;5055149;28;20417;-80
2022/07/19 01:02:38;;;;;;;5.47;3.10;;;;;;;;;;5053342;28;20481;-78
2022/07/19 01:05:08;;;;;;;5.73;2.80;;;;;;;;;;5054980;28;20857;-77
2022/07/19 01:07:40;;;;;;;4.00;2.63;;;;;;;;;;5054741;28;20473;-77
2022/07/19 01:10:06;;;;;;;6.67;2.73;;;;;;;;;;5055020;28;20428;-77
2022/07/19 01:12:33;;;;;;;5.03;2.60;;;;;;;;;;5054530;28;20405;-77
2022/07/19 01:14:59;;;;;;;5.90;2.83;;;;;;;;;;5055047;28;20411;-77
2022/07/19 01:17:25;;;;;;;5.80;3.00;;;;;;;;;;5054897;28;20412;-76
2022/07/19 01:19:51;;;;;;;4.63;2.60;;;;;;;;;;5054722;28;20402;-78
2022/07/19 01:22:17;;;;;;;6.40;3.03;;;;;;;;;;5054487;28;20409;-77
2022/07/19 01:24:43;;;;;;;4.60;2.60;;;;;;;;;;5054499;28;20436;-79
2022/07/19 01:27:09;;;;;;;10.33;3.10;;;;;;;;;;5054952;28;20488;-76
2022/07/19 01:29:36;;;;;;;2.93;2.40;;;;;;;;;;5055065;28;20423;-76
2022/07/19 01:32:02;;;;;;;5.53;3.03;;;;;;;;;;5054760;28;20418;-79
2022/07/19 01:34:28;;;;;;;5.43;3.50;;;;;;;;;;5054357;28;20975;-79
2022/07/19 01:36:54;;;;;;;11.93;3.07;;;;;;;;;;5054627;28;20881;-78
2022/07/19 01:39:20;;;;;;;3.97;3.07;;;;;;;;;;5053712;28;20424;-77
2022/07/19 01:41:46;;;;;;;8.87;2.53;;;;;;;;;;5054809;28;20834;-79
2022/07/19 01:44:12;;;;;;;8.03;2.77;;;;;;;;;;5054509;28;20789;-79
2022/07/19 01:46:38;;;;;;;5.47;2.60;;;;;;;;;;5054247;28;20464;-78
2022/07/19 01:49:05;;;;;;;6.90;3.10;;;;;;;;;;5054581;28;20412;-76
2022/07/19 01:51:31;;;;;;;4.10;2.43;;;;;;;;;;5053440;28;20417;-77
2022/07/19 01:53:57;;;;;;;7.00;2.93;;;;;;;;;;5059151;28;20447;-77
2022/07/19 01:56:23;;;;;;;6.53;3.23;;;;;;;;;;5055316;28;20424;-77
2022/07/19 01:58:49;;;;;;;3.20;2.70;;;;;;;;;;5054915;28;20416;-77
2022/07/19 02:01:26;;;;;;;4.80;3.13;;;;;;;;;;5054225;28;20456;-78
2022/07/19 02:03:52;;;;;;;6.93;3.83;;;;;;;;;;5052532;28;20440;-78
2022/07/19 02:06:18;;;;;;;7.70;3.07;;;;;;;;;;5052488;28;20483;-77
2022/07/19 02:08:53;;;;;;;5.03;2.97;;;;;;;;;;5053664;28;20837;-79
2022/07/19 02:11:35;;;;;;;5.40;2.83;;;;;;;;;;5053723;28;20498;-77
2022/07/19 02:14:01;;;;;;;4.67;3.17;;;;;;;;;;5053500;28;20443;-77
2022/07/19 02:16:27;;;;;;;6.97;2.80;;;;;;;;;;5053679;28;20421;-77
2022/07/19 02:18:54;;;;;;;6.60;3.17;;;;;;;;;;5053668;28;20425;-76
2022/07/19 02:21:19;;;;;;;7.63;2.60;;;;;;;;;;5053541;28;20431;-77
2022/07/19 02:23:46;;;;;;;9.87;3.23;;;;;;;;;;5053217;28;20454;-77
2022/07/19 02:26:12;;;;;;;5.17;2.77;;;;;;;;;;5053421;28;20461;-76
2022/07/19 02:28:38;;;;;;;4.90;2.83;;;;;;;;;;5053708;28;20500;-77
2022/07/19 02:31:04;;;;;;;6.03;2.80;;;;;;;;;;5053714;28;20412;-77
2022/07/19 02:33:30;;;;;;;3.90;2.73;;;;;;;;;;5053151;28;20429;-78
2022/07/19 02:35:56;;;;;;;3.60;3.10;;;;;;;;;;5053320;28;20761;-78
2022/07/19 02:38:22;;;;;;;8.00;2.93;;;;;;;;;;5053421;28;20419;-77
2022/07/19 02:40:49;;;;;;;6.07;3.23;;;;;;;;;;5053382;28;20416;-78
2022/07/19 02:43:15;;;;;;;4.77;2.60;;;;;;;;;;5051536;28;21022;-78
2022/07/19 02:45:41;;;;;;;4.70;2.77;;;;;;;;;;5053193;28;21123;-77
2022/07/19 02:48:07;;;;;;;6.43;3.30;;;;;;;;;;5053141;28;20426;-78
2022/07/19 02:50:33;;;;;;;8.30;3.40;;;;;;;;;;5052696;28;20450;-77
2022/07/19 02:52:59;;;;;;;5.53;3.23;;;;;;;;;;5052766;28;20871;-76
2022/07/19 02:55:25;;;;;;;5.03;3.10;;;;;;;;;;5053173;28;20935;-78
2022/07/19 02:57:51;;;;;;;6.10;2.70;;;;;;;;;;5051973;28;20388;-77
2022/07/19 03:00:17;;;;;;;3.50;2.90;;;;;;;;;;5051802;28;20865;-77
2022/07/19 03:02:43;;;;;;;4.20;2.90;;;;;;;;;;5051524;28;20491;-76
2022/07/19 03:05:09;;;;;;;8.60;4.03;;;;;;;;;;5052725;28;20759;-77
2022/07/19 03:07:35;;;;;;;4.20;3.37;;;;;;;;;;5052745;28;21036;-76
2022/07/19 03:10:01;;;;;;;6.90;3.40;;;;;;;;;;5052661;28;20400;-77
2022/07/19 03:12:28;;;;;;;5.07;3.40;;;;;;;;;;5052246;28;20501;-77
2022/07/19 03:14:54;;;;;;;7.60;3.10;;;;;;;;;;5052810;28;20425;-76
2022/07/19 03:17:19;;;;;;;9.67;3.10;;;;;;;;;;5052662;28;20414;-77
2022/07/19 03:19:46;;;;;;;5.43;2.93;;;;;;;;;;5053158;28;20471;-77
2022/07/19 03:22:12;;;;;;;4.40;2.87;;;;;;;;;;5052555;28;20414;-77
2022/07/19 03:24:38;;;;;;;4.20;2.90;;;;;;;;;;5052259;28;20500;-77
2022/07/19 03:27:04;;;;;;;5.33;2.73;;;;;;;;;;5052546;28;20958;-76
2022/07/19 03:29:30;;;;;;;8.50;3.27;;;;;;;;;;5052600;28;20785;-77
2022/07/19 03:31:56;;;;;;;4.13;2.53;;;;;;;;;;5052521;28;20389;-77
2022/07/19 03:34:22;;;;;;;4.20;2.63;;;;;;;;;;5052134;28;20798;-76
2022/07/19 03:36:48;;;;;;;4.37;2.60;;;;;;;;;;5052417;28;20456;-78
2022/07/19 03:39:14;;;;;;;4.17;3.20;;;;;;;;;;5052460;28;20502;-78
2022/07/19 03:41:40;;;;;;;9.57;3.70;;;;;;;;;;5052318;28;20759;-77
2022/07/19 03:44:10;;;;;;;9.97;3.27;;;;;;;;;;5051982;28;20446;-76
2022/07/19 03:46:36;;;;;;;5.37;3.00;;;;;;;;;;5051606;28;20477;-77
2022/07/19 03:49:02;;;;;;;5.10;2.80;;;;;;;;;;5054870;28;20410;-76
2022/07/19 03:51:28;;;;;;;5.50;3.40;;;;;;;;;;5052181;28;20413;-77
2022/07/19 03:53:54;;;;;;;5.27;3.00;;;;;;;;;;5051919;28;20430;-76
2022/07/19 03:56:20;;;;;;;5.00;2.77;;;;;;;;;;5052630;28;20419;-76
2022/07/19 03:58:47;;;;;;;9.43;3.40;;;;;;;;;;5052472;28;20545;-78
2022/07/19 04:01:14;;;;;;;6.57;3.60;;;;;;;;;;5052374;28;20422;-76
2022/07/19 04:06:22;;;;;;;7.80;3.30;;;;;;;;;;4956883;29;20804;-78
2022/07/19 04:08:48;;;;;;;5.13;3.30;;;;;;;;;;4958044;29;20782;-78
2022/07/19 04:11:14;;;;;;;7.90;3.60;;;;;;;;;;4957751;29;20462;-77
2022/07/19 04:13:40;;;;;;;4.87;3.10;;;;;;;;;;4967731;28;20761;-76
2022/07/19 04:16:06;;;;;;;7.80;4.60;;;;;;;;;;4977101;28;20401;-76
2022/07/19 04:18:32;;;;;;;6.90;3.90;;;;;;;;;;4977528;28;20423;-76
2022/07/19 04:20:58;;;;;;;10.43;5.23;;;;;;;;;;4975825;28;20794;-76
2022/07/19 04:23:24;;;;;;;10.50;5.37;;;;;;;;;;4976619;28;20520;-77
2022/07/19 04:25:50;;;;;;;8.63;4.70;;;;;;;;;;4976846;28;20524;-76
2022/07/19 04:28:16;;;;;;;12.47;4.43;;;;;;;;;;4976856;28;20468;-76
2022/07/19 04:30:42;;;;;;;8.37;4.43;;;;;;;;;;4976830;28;20501;-76
2022/07/19 04:33:08;;;;;;;10.07;4.73;;;;;;;;;;4976714;28;20520;-77
2022/07/19 04:35:34;;;;;;;8.70;4.13;;;;;;;;;;4976635;28;20450;-77
2022/07/19 04:38:00;;;;;;;11.57;4.03;;;;;;;;;;4977106;28;20397;-76
2022/07/19 04:40:26;;;;;;;6.97;4.40;;;;;;;;;;4976645;28;20857;-75
2022/07/19 04:42:52;;;;;;;10.23;4.90;;;;;;;;;;4973560;28;20442;-78
2022/07/19 04:45:18;;;;;;;9.93;4.87;;;;;;;;;;4975498;28;20430;-77
2022/07/19 04:47:44;;;;;;;11.67;5.10;;;;;;;;;;4975180;28;20506;-76
2022/07/19 04:50:10;;;;;;;8.67;4.60;;;;;;;;;;4976478;28;20442;-76
2022/07/19 04:52:36;;;;;;;8.90;4.20;;;;;;;;;;4976368;28;20424;-76
2022/07/19 04:55:02;;;;;;;9.43;4.87;;;;;;;;;;4976363;28;20418;-77
2022/07/19 04:57:28;;;;;;;14.93;5.07;;;;;;;;;;4976287;28;20425;-76
2022/07/19 04:59:54;;;;;;;6.77;4.67;;;;;;;;;;4976735;28;20417;-76
2022/07/19 05:02:20;;;;;;;18.03;5.63;;;;;;;;;;4974929;28;20501;-77
2022/07/19 05:04:46;;;;;;;10.27;4.50;;;;;;;;;;4989669;28;20450;-77
2022/07/19 05:07:12;;;;;;;7.47;4.63;;;;;;;;;;5015328;28;20466;-76
2022/07/19 05:09:38;;;;;;;7.10;5.10;;;;;;;;;;5015193;28;20414;-77
2022/07/19 05:12:07;;;;;;;12.57;5.50;;;;;;;;;;5015083;28;20469;-77
2022/07/19 05:14:33;;;;;;;11.00;4.80;;;;;;;;;;5014858;28;20465;-76
2022/07/19 05:16:59;;;;;;;10.37;4.30;;;;;;;;;;5015688;28;20769;-76
2022/07/19 05:19:25;;;;;;;8.83;4.87;;;;;;;;;;4997669;28;20403;-77
2022/07/19 05:21:51;;;;;;;8.20;4.87;;;;;;;;;;5015328;28;20414;-77
2022/07/19 05:24:17;;;;;;;8.77;4.90;;;;;;;;;;5014904;28;20919;-76
2022/07/19 05:26:43;;;;;;;10.13;4.40;;;;;;;;;;5014987;28;20458;-75
2022/07/19 05:29:09;;;;;;;7.33;4.40;;;;;;;;;;4981046;28;20935;-77
2022/07/19 05:31:35;;;;;;;11.53;4.70;;;;;;;;;;4996294;28;20916;-76
2022/07/19 05:34:02;;;;;;;7.13;3.87;;;;;;;;;;4995056;28;20430;-76
2022/07/19 05:36:28;;;;;;;11.63;4.73;;;;;;;;;;4977935;28;20420;-75
2022/07/19 05:38:55;;;;;;;6.47;3.73;;;;;;;;;;4995172;28;20422;-80
2022/07/19 05:41:21;;;;;;;9.67;4.30;;;;;;;;;;4994973;28;20439;-79
2022/07/19 05:43:48;;;;;;;10.40;4.20;;;;;;;;;;4977502;28;20812;-79
2022/07/19 05:46:14;;;;;;;10.90;4.30;;;;;;;;;;4977407;28;20546;-80
2022/07/19 05:48:40;;;;;;;10.07;4.33;;;;;;;;;;4977602;28;20521;-75
2022/07/19 05:51:06;;;;;;;7.57;3.77;;;;;;;;;;4995045;28;20411;-75
2022/07/19 05:53:32;;;;;;;7.03;4.20;;;;;;;;;;4994345;28;20436;-76
2022/07/19 05:55:58;;;;;;;11.60;4.17;;;;;;;;;;5001774;28;20426;-74
2022/07/19 05:58:24;;;;;;;12.93;4.43;;;;;;;;;;5014276;28;20436;-73
2022/07/19 06:03:35;;;;;;;12.67;4.07;;;;;;;;;;5014005;28;20438;-74
2022/07/19 06:06:01;;;;;;;7.67;4.23;;;;;;;;;;5013920;28;20790;-74
2022/07/19 06:08:27;;;;;;;14.07;3.90;;;;;;;;;;5014048;28;20502;-76
2022/07/19 06:10:53;;;;;;;10.63;3.80;;;;;;;;;;5013837;28;20790;-73
2022/07/19 06:13:19;;;;;;;9.37;4.30;;;;;;;;;;5006852;28;20450;-74
2022/07/19 06:15:45;;;;;;;9.13;4.53;;;;;;;;;;4996834;28;20880;-74
2022/07/19 06:18:11;;;;;;;12.60;4.30;;;;;;;;;;4994370;28;20758;-74
2022/07/19 06:20:37;;;;;;;12.67;4.10;;;;;;;;;;4994056;28;20419;-73
2022/07/19 06:23:03;;;;;;;9.33;4.20;;;;;;;;;;4993365;28;20515;-74
2022/07/19 06:25:29;;;;;;;11.30;4.60;;;;;;;;;;4993784;28;20470;-73
2022/07/19 06:27:55;;;;;;;10.83;4.50;;;;;;;;;;4994208;28;20447;-74
2022/07/19 06:30:21;;;;;;;14.20;5.17;;;;;;;;;;4994211;28;20418;-74
2022/07/19 06:32:47;;;;;;;10.30;4.00;;;;;;;;;;4993793;28;20439;-74
2022/07/19 06:35:13;;;;;;;10.63;4.43;;;;;;;;;;4993918;28;20411;-73
2022/07/19 06:37:39;;;;;;;11.10;4.73;;;;;;;;;;4993993;28;20423;-74
2022/07/19 06:40:05;;;;;;;11.13;4.40;;;;;;;;;;4994042;28;20415;-73
2022/07/19 06:42:32;;;;;;;10.70;4.80;;;;;;;;;;4993640;28;20478;-73
2022/07/19 06:45:01;;;;;;;12.57;5.07;;;;;;;;;;4976707;28;20780;-73
2022/07/19 06:47:28;;;;;;;8.70;4.90;;;;;;;;;;4993856;28;20883;-73
2022/07/19 06:49:54;;;;;;;11.50;5.40;;;;;;;;;;4996427;28;20416;-74
2022/07/19 06:52:20;;;;;;;10.10;5.00;;;;;;;;;;4998356;28;20494;-74
2022/07/19 06:54:46;;;;;;;11.43;4.47;;;;;;;;;;4993815;28;20535;-74
2022/07/19 06:57:12;;;;;;;9.90;4.53;;;;;;;;;;4993590;28;20845;-73
2022/07/19 06:59:38;;;;;;;8.97;4.07;;;;;;;;;;4993821;28;20423;-73
2022/07/19 07:02:04;;;;;;;10.60;4.50;;;;;;;;;;4993736;28;20485;-74
2022/07/19 07:04:30;;;;;;;10.97;3.97;;;;;;;;;;4993135;28;20470;-74
2022/07/19 07:06:57;;;;;;;8.67;4.73;;;;;;;;;;4993711;28;20836;-74
2022/07/19 07:09:23;;;;;;;9.00;3.80;;;;;;;;;;4993472;28;20769;-74
2022/07/19 07:11:49;;;;;;;9.60;4.00;;;;;;;;;;4993533;28;20550;-74
2022/07/19 07:14:15;;;;;;;7.30;4.50;;;;;;;;;;4993103;28;20515;-74
2022/07/19 07:16:41;;;;;;;8.77;3.50;;;;;;;;;;4993303;28;21148;-74
2022/07/19 07:19:07;;;;;;;7.90;4.03;;;;;;;;;;4993238;28;20426;-73
2022/07/19 07:21:34;;;;;;;8.10;3.70;;;;;;;;;;4993132;28;20410;-75
2022/07/19 07:24:04;;;;;;;11.33;4.60;;;;;;;;;;4992899;28;20427;-75
2022/07/19 07:26:31;;;;;;;14.53;4.10;;;;;;;;;;4993187;28;20564;-75
2022/07/19 07:28:57;;;;;;;7.90;4.90;;;;;;;;;;4993299;28;20453;-75
2022/07/19 07:31:23;;;;;;;9.10;4.10;;;;;;;;;;4993253;28;20778;-76
2022/07/19 07:33:48;;;;;;;6.37;3.67;;;;;;;;;;4992698;28;20466;-75
2022/07/19 07:36:14;;;;;;;13.17;4.90;;;;;;;;;;4993409;28;20450;-75
2022/07/19 07:38:41;;;;;;;12.27;4.30;;;;;;;;;;4996200;28;20429;-75
2022/07/19 07:41:07;;;;;;;10.70;4.00;;;;;;;;;;4997355;28;20427;-75
2022/07/19 07:43:33;;;;;;;6.87;4.27;;;;;;;;;;4996731;28;20942;-75
2022/07/19 07:45:59;;;;;;;6.17;3.93;;;;;;;;;;4997112;28;20559;-75
2022/07/19 07:48:25;;;;;;;7.83;4.10;;;;;;;;;;4997075;28;20489;-75
2022/07/19 07:50:51;;;;;;;8.33;3.53;;;;;;;;;;4997171;28;20844;-75
2022/07/19 07:53:17;;;;;;;12.33;4.27;;;;;;;;;;4996724;28;20471;-75
2022/07/19 07:55:43;;;;;;;8.03;4.27;;;;;;;;;;4979464;28;20439;-75
2022/07/19 07:58:09;;;;;;;4.40;3.13;;;;;;;;;;4997072;28;20426;-75
2022/07/19 08:00:36;;;;;;;9.87;4.13;;;;;;;;;;4997111;28;20510;-75
2022/07/19 08:03:02;;;;;;;12.97;3.60;;;;;;;;;;4996593;28;20865;-75
2022/07/19 08:05:28;;;;;;;12.40;3.60;;;;;;;;;;4985328;28;20930;-74
2022/07/19 08:07:54;;;;;;;7.50;3.60;;;;;;;;;;5006148;28;20528;-73
2022/07/19 08:10:21;;;;;;;10.40;3.67;;;;;;;;;;5014009;28;20430;-73
2022/07/19 08:12:47;;;;;;;9.83;3.63;;;;;;;;;;4992598;28;20954;-74
2022/07/19 08:15:13;;;;;;;7.43;3.90;;;;;;;;;;5016324;28;20453;-74
2022/07/19 08:17:39;;;;;;;7.43;3.70;;;;;;;;;;5014384;28;20465;-74
2022/07/19 08:20:05;;;;;;;12.73;3.00;;;;;;;;;;5015571;28;20426;-73
2022/07/19 08:22:31;;;;;;;7.97;3.80;;;;;;;;;;5011621;28;20479;-74
2022/07/19 08:24:58;;;;;;;5.83;3.30;;;;;;;;;;4998681;28;20449;-74
2022/07/19 08:27:24;;;;;;;4.47;3.13;;;;;;;;;;5007211;28;20470;-74
2022/07/19 08:29:50;;;;;;;9.73;3.30;;;;;;;;;;5006457;28;20427;-74
2022/07/19 08:32:16;;;;;;;9.60;3.50;;;;;;;;;;4996017;28;20468;-75
2022/07/19 08:34:42;;;;;;;6.97;3.60;;;;;;;;;;5007964;28;20841;-74
2022/07/19 08:37:08;;;;;;;10.30;4.00;;;;;;;;;;5015477;28;20480;-74
2022/07/19 08:39:33;;;;;;;11.70;3.33;;;;;;;;;;5013989;28;20433;-74
2022/07/19 08:41:59;;;;;;;8.67;3.97;;;;;;;;;;5012458;28;20430;-74
2022/07/19 08:44:26;;;;;;;9.37;3.43;;;;;;;;;;5013078;28;21102;-74
2022/07/19 08:46:52;;;;;;;10.33;3.60;;;;;;;;;;5007667;28;20474;-74
2022/07/19 08:49:18;;;;;;;6.70;3.60;;;;;;;;;;5014538;28;20440;-74
2022/07/19 08:51:44;;;;;;;8.07;4.10;;;;;;;;;;5007778;28;20423;-74
2022/07/19 08:54:11;;;;;;;8.93;3.70;;;;;;;;;;5013819;28;20800;-75
2022/07/19 08:59:23;;;;;;;4.50;3.33;;;;;;;;;;5014547;28;20469;-75
2022/07/19 09:01:49;;;;;;;11.07;3.77;;;;;;;;;;4998417;28;20461;-74
2022/07/19 09:04:16;;;;;;;6.57;3.40;;;;;;;;;;4996325;28;20442;-74
2022/07/19 09:06:44;;;;;;;7.20;3.77;;;;;;;;;;5001572;28;20453;-75
2022/07/19 09:09:10;;;;;;;6.67;3.40;;;;;;;;;;5015097;28;20467;-75
2022/07/19 09:11:37;;;;;;;7.93;3.27;;;;;;;;;;5014919;28;20903;-74
2022/07/19 09:14:04;;;;;;;6.83;3.07;;;;;;;;;;5011724;28;20512;-74
2022/07/19 09:16:48;;;;;;;5.43;2.90;;;;;;;;;;5013612;28;20429;-74
2022/07/19 09:19:14;;;;;;;10.50;3.63;;;;;;;;;;5009146;28;20423;-74
2022/07/19 09:21:52;;;;;;;5.07;3.10;;;;;;;;;;5014670;28;20991;-74
2022/07/19 09:24:19;;;;;;;8.80;3.30;;;;;;;;;;5013340;28;20445;-75
2022/07/19 09:26:55;;;;;;;8.93;3.13;;;;;;;;;;4997807;28;20504;-74
2022/07/19 09:29:21;;;;;;;6.47;2.73;;;;;;;;;;5012260;28;20468;-75
2022/07/19 09:32:04;;;;;;;9.40;3.40;;;;;;;;;;5015005;28;20410;-75
2022/07/19 09:34:31;;;;;;;7.07;2.97;;;;;;;;;;4995626;28;20442;-75
2022/07/19 09:37:07;;;;;;;7.10;3.17;;;;;;;;;;5008314;28;20421;-75
2022/07/19 09:39:33;;;;;;;8.53;2.60;;;;;;;;;;5012056;28;20415;-75
2022/07/19 09:42:02;;;;;;;7.37;2.87;;;;;;;;;;5002386;28;20453;-75
2022/07/19 09:44:29;;;;;;;4.97;2.77;;;;;;;;;;5002505;28;20944;-75
2022/07/19 09:46:55;;;;;;;6.47;3.07;;;;;;;;;;5010958;28;20884;-76
2022/07/19 09:49:21;;;;;;;3.93;2.43;;;;;;;;;;5012930;28;20436;-75
2022/07/19 09:51:51;;;;;;;5.40;2.73;;;;;;;;;;5012571;28;20421;-75
2022/07/19 09:54:27;;;;;;;5.03;2.30;;;;;;;;;;5012530;28;20448;-75
2022/07/19 09:56:54;;;;;;;3.87;2.27;;;;;;;;;;4993342;28;20472;-75
2022/07/19 09:59:21;;;;;;;4.90;2.80;;;;;;;;;;4993029;28;20928;-75
2022/07/19 10:01:48;;;;;;;6.93;2.43;;;;;;;;;;4994192;28;20489;-75
2022/07/19 10:04:15;;;;;;;4.33;2.63;;;;;;;;;;4994219;28;20435;-75
2022/07/19 10:06:41;;;;;;;10.10;2.63;;;;;;;;;;4996065;28;20564;-76
2022/07/19 10:09:09;;;;;;;7.43;2.33;;;;;;;;;;5014524;28;20406;-75
2022/07/19 10:11:35;;;;;;;8.00;2.63;;;;;;;;;;5014346;28;20460;-75
2022/07/19 10:14:02;;;;;;;4.47;2.70;;;;;;;;;;5013831;28;20919;-75
2022/07/19 10:16:33;;;;;;;4.90;2.43;;;;;;;;;;5014203;28;20819;-76
2022/07/19 10:19:05;;;;;;;3.63;2.40;;;;;;;;;;5011914;28;20456;-77
2022/07/19 10:21:31;;;;;;;5.20;2.20;;;;;;;;;;5011858;28;20445;-75
2022/07/19 10:24:00;;;;;;;3.87;2.60;;;;;;;;;;5012183;28;20507;-78
2022/07/19 10:26:46;;;;;;;5.20;2.30;;;;;;;;;;5010342;28;20482;-77
2022/07/19 10:29:15;;;;;;;5.60;2.37;;;;;;;;;;5012821;28;20433;-77
2022/07/19 10:31:41;;;;;;;6.83;2.77;;;;;;;;;;5011968;28;20793;-77
2022/07/19 10:34:11;;;;;;;4.33;2.70;;;;;;;;;;5011855;28;20853;-77
2022/07/19 10:36:39;;;;;;;9.23;2.27;;;;;;;;;;5012228;28;20476;-76
2022/07/19 10:39:20;;;;;;;5.20;2.20;;;;;;;;;;5012180;28;20469;-77
2022/07/19 10:42:04;;;;;;;2.97;2.10;;;;;;;;;;5011535;28;20425;-77
2022/07/19 10:44:31;;;;;;;6.40;2.00;;;;;;;;;;5011608;28;20425;-77
2022/07/19 10:46:57;;;;;;;6.67;2.30;;;;;;;;;;5007841;28;20496;-77
2022/07/19 10:49:44;;;;;;;5.07;2.10;;;;;;;;;;5011686;28;20422;-78
2022/07/19 10:52:29;;;;;;;4.43;2.40;;;;;;;;;;5012233;28;20492;-76
2022/07/19 10:55:13;;;;;;;6.37;2.27;;;;;;;;;;5011617;28;20917;-77
2022/07/19 10:57:39;;;;;;;6.53;2.37;;;;;;;;;;5011797;28;20445;-78
2022/07/19 11:00:16;;;;;;;5.50;2.20;;;;;;;;;;4994610;28;20482;-77
2022/07/19 11:02:42;;;;;;;5.23;2.17;;;;;;;;;;5010436;28;20805;-78
2022/07/19 11:05:20;;;;;;;2.90;1.90;;;;;;;;;;5011974;28;20449;-78
2022/07/19 11:07:49;;;;;;;4.80;1.90;;;;;;;;;;4992222;28;20237;-78
2022/07/19 11:10:22;;;;;;;7.43;2.30;;;;;;;;;;4991903;28;21042;-77
2022/07/19 11:12:48;;;;;;;4.43;2.03;;;;;;;;;;4991437;28;20815;-78
2022/07/19 11:15:14;;;;;;;3.10;2.00;;;;;;;;;;4992512;28;20824;-77
2022/07/19 11:17:41;;;;;;;5.07;2.07;;;;;;;;;;4991149;28;20431;-78
2022/07/19 11:20:09;;;;;;;4.20;2.10;;;;;;;;;;4993731;28;20423;-77
2022/07/19 11:22:35;;;;;;;6.77;2.80;;;;;;;;;;5010887;28;20449;-76
2022/07/19 11:25:02;;;;;;;4.03;2.13;;;;;;;;;;5011127;28;20429;-77
2022/07/19 11:27:28;;;;;;;5.73;2.27;;;;;;;;;;5011207;28;20556;-77
2022/07/19 11:29:55;;;;;;;4.20;2.43;;;;;;;;;;5011786;28;20418;-76
2022/07/19 11:32:21;;;;;;;5.93;2.57;;;;;;;;;;5010442;28;20433;-77
2022/07/19 11:34:57;;;;;;;4.10;1.93;;;;;;;;;;5011150;28;20442;-76
2022/07/19 11:37:24;;;;;;;5.87;2.27;;;;;;;;;;5011128;28;20429;-78
2022/07/19 11:39:50;;;;;;;4.33;2.20;;;;;;;;;;5011239;28;20803;-77
2022/07/19 11:42:27;;;;;;;4.03;2.10;;;;;;;;;;5011021;28;20425;-80
2022/07/19 11:44:54;;;;;;;4.30;2.40;;;;;;;;;;5011760;28;20441;-78
2022/07/19 11:47:21;;;;;;;2.70;2.00;;;;;;;;;;5009092;28;20484;-77
2022/07/19 11:49:47;;;;;;;4.43;2.10;;;;;;;;;;4993459;28;20808;-78
2022/07/19 11:52:13;;;;;;;5.60;2.33;;;;;;;;;;5011079;28;20426;-76
2022/07/19 11:54:39;;;;;;;4.10;1.97;;;;;;;;;;5010700;28;20441;-78
2022/07/19 11:57:05;;;;;;;3.80;1.80;;;;;;;;;;5010920;28;20516;-77
2022/07/19 11:59:31;;;;;;;4.90;1.90;;;;;;;;;;5011573;28;20599;-77
2022/07/19 12:01:57;;;;;;;5.73;2.20;;;;;;;;;;5010547;28;20936;-79
2022/07/19 12:04:23;;;;;;;6.80;2.33;;;;;;;;;;5010838;28;20497;-77
2022/07/19 12:06:54;;;;;;;2.90;1.60;;;;;;;;;;5011504;28;20492;-76
2022/07/19 12:09:25;;;;;;;2.23;1.70;;;;;;;;;;5011914;28;20414;-77
2022/07/19 12:11:52;;;;;;;5.50;2.00;;;;;;;;;;5012429;28;20414;-77
2022/07/19 12:14:21;;;;;;;3.83;2.13;;;;;;;;;;5012131;28;20436;-76
2022/07/19 12:16:47;;;;;;;5.50;1.70;;;;;;;;;;5012526;28;20410;-77
2022/07/19 12:19:17;;;;;;;4.40;2.20;;;;;;;;;;5005815;28;20481;-77
2022/07/19 12:21:43;;;;;;;4.33;2.20;;;;;;;;;;5003815;28;20422;-76
2022/07/19 12:24:09;;;;;;;13.83;2.40;;;;;;;;;;5013808;28;21024;-76
2022/07/19 12:26:36;;;;;;;6.03;2.40;;;;;;;;;;5015805;28;20402;-76
2022/07/19 12:29:02;;;;;;;4.57;2.20;;;;;;;;;;5007473;28;20183;-76
2022/07/19 12:31:28;;;;;;;2.87;2.30;;;;;;;;;;5003705;28;20414;-76
2022/07/19 12:34:01;;;;;;;4.40;2.50;;;;;;;;;;5003778;28;20441;-76
2022/07/19 12:36:36;;;;;;;7.97;2.10;;;;;;;;;;5009765;28;20209;-77
2022/07/19 12:39:03;;;;;;;2.63;2.00;;;;;;;;;;5010571;28;20891;-76
2022/07/19 12:41:29;;;;;;;6.23;2.33;;;;;;;;;;4996440;28;20407;-76
2022/07/19 12:43:55;;;;;;;3.43;2.20;;;;;;;;;;4995991;28;20793;-76
2022/07/19 12:46:21;;;;;;;3.80;2.10;;;;;;;;;;4996417;28;20414;-76
2022/07/19 12:48:47;;;;;;;2.40;2.20;;;;;;;;;;4996242;28;20429;-76
2022/07/19 12:51:13;;;;;;;5.70;2.03;;;;;;;;;;4984106;28;20910;-76
2022/07/19 12:53:39;;;;;;;7.17;2.93;;;;;;;;;;4981391;28;20491;-76
2022/07/19 12:56:05;;;;;;;5.63;2.27;;;;;;;;;;5015579;28;20456;-77
2022/07/19 13:01:16;;;;;;;11.47;2.27;;;;;;;;;;5016129;28;21061;-76
2022/07/19 13:03:42;;;;;;;7.43;2.20;;;;;;;;;;5014968;28;20437;-76
2022/07/19 13:06:08;;;;;;;6.43;2.30;;;;;;;;;;5010970;28;20910;-76
2022/07/19 13:08:34;;;;;;;5.40;2.57;;;;;;;;;;5015362;28;20417;-76
2022/07/19 13:11:01;;;;;;;4.10;2.70;;;;;;;;;;5016151;28;20484;-76
2022/07/19 13:13:27;;;;;;;2.60;2.33;;;;;;;;;;5014906;28;20201;-77
2022/07/19 13:15:53;;;;;;;3.83;2.60;;;;;;;;;;5012458;28;20454;-76
2022/07/19 13:18:20;;;;;;;3.20;2.33;;;;;;;;;;5015367;28;20410;-76
2022/07/19 13:20:46;;;;;;;4.70;2.97;;;;;;;;;;5014990;28;20406;-76
2022/07/19 13:23:12;;;;;;;6.23;2.20;;;;;;;;;;5014667;28;20888;-76
2022/07/19 13:25:38;;;;;;;3.37;1.70;;;;;;;;;;5015120;28;20416;-76
2022/07/19 13:28:04;;;;;;;4.23;1.90;;;;;;;;;;5014827;28;20422;-76
2022/07/19 13:30:31;;;;;;;4.20;1.80;;;;;;;;;;5015034;28;20194;-76
2022/07/19 13:32:57;;;;;;;8.33;2.20;;;;;;;;;;5014367;28;20425;-76
2022/07/19 13:35:23;;;;;;;5.33;2.37;;;;;;;;;;5013597;28;20476;-76
2022/07/19 13:37:49;;;;;;;3.77;2.47;;;;;;;;;;5014783;28;20465;-76
2022/07/19 13:40:15;;;;;;;3.43;2.27;;;;;;;;;;5014769;28;20827;-76
2022/07/19 13:42:42;;;;;;;4.83;2.20;;;;;;;;;;5014365;28;20774;-76
2022/07/19 13:45:08;;;;;;;2.80;2.13;;;;;;;;;;5007906;28;20497;-78
2022/07/19 13:47:37;;;;;;;4.77;2.43;;;;;;;;;;4995665;28;20429;-76
2022/07/19 13:50:04;;;;;;;3.73;1.90;;;;;;;;;;5014513;28;20422;-77
2022/07/19 13:52:30;;;;;;;4.23;2.00;;;;;;;;;;5009445;28;20430;-77
2022/07/19 13:54:56;;;;;;;3.43;2.50;;;;;;;;;;5014002;28;20428;-77
2022/07/19 13:57:22;;;;;;;4.83;2.00;;;;;;;;;;5002927;28;20466;-78
2022/07/19 13:59:48;;;;;;;2.50;2.30;;;;;;;;;;5001908;28;20415;-78
2022/07/19 14:02:14;;;;;;;3.30;1.97;;;;;;;;;;5002733;28;20434;-78
2022/07/19 14:04:40;;;;;;;3.50;2.57;;;;;;;;;;5001721;28;20908;-78
2022/07/19 14:07:06;;;;;;;3.70;2.57;;;;;;;;;;5003905;28;20446;-77
2022/07/19 14:09:33;;;;;;;9.73;2.07;;;;;;;;;;4998343;28;20196;-78
2022/07/19 14:11:59;;;;;;;4.37;2.50;;;;;;;;;;5004035;28;20190;-78
2022/07/19 14:14:26;;;;;;;6.30;2.10;;;;;;;;;;5013705;28;20450;-78
2022/07/19 14:16:52;;;;;;;2.30;2.03;;;;;;;;;;5014066;28;20461;-78
2022/07/19 14:19:18;;;;;;;3.50;2.30;;;;;;;;;;5013982;28;20417;-77
2022/07/19 14:21:44;;;;;;;3.00;2.00;;;;;;;;;;5013639;28;20426;-76
2022/07/19 14:24:10;;;;;;;1.97;1.80;;;;;;;;;;5013405;28;20430;-78
2022/07/19 14:26:36;;;;;;;5.10;1.73;;;;;;;;;;5013877;28;20471;-78
2022/07/19 14:29:03;;;;;;;3.63;2.10;;;;;;;;;;5013621;28;20417;-78
2022/07/19 14:31:29;;;;;;;2.33;2.07;;;;;;;;;;5013892;28;20413;-77
2022/07/19 14:33:55;;;;;;;2.97;1.70;;;;;;;;;;5012859;28;20452;-78
2022/07/19 14:36:21;;;;;;;3.30;2.10;;;;;;;;;;5013702;28;20273;-77
2022/07/19 14:38:47;;;;;;;4.00;2.00;;;;;;;;;;5013438;28;20763;-77
2022/07/19 14:41:13;;;;;;;5.50;1.93;;;;;;;;;;5013444;28;20192;-78
2022/07/19 14:43:39;;;;;;;1.70;1.60;;;;;;;;;;5013103;28;20524;-77
2022/07/19 14:46:05;;;;;;;3.33;1.50;;;;;;;;;;5013031;28;20422;-77
2022/07/19 14:48:31;;;;;;;3.63;1.87;;;;;;;;;;5013094;28;20421;-77
2022/07/19 14:50:57;;;;;;;2.37;1.97;;;;;;;;;;5013212;28;20488;-78